This demonstration page uses our WeatherBlox Daily Observations layout. Learn more.

39.29038, -76.61219

Hourly Observations for July 13, 2015

Temp ( °F °C ) Dew Point ( °F °C ) Humidity (%) Winds ( mph kmh ) Pressure ( in mb ) Visibility ( mi km ) Precip ( " mm )
12:54 am 00:54 Mostly Clear 78 25.6 62 16.7 58 58 undefined N/A 29.96 1014 N/A 0 0
1:54 am 01:54 Cloudy 81 27.2 73 22.7 76 76 undefined N/A 28.09 951 N/A 0 0
2:54 am 02:54 Partly Cloudy 77 25 62 16.7 60 60 undefined N/A 29.93 1014 N/A 0 0
3:54 am 03:54 undefined 76 24.4 63 17.2 64 64 undefined N/A 29.92 1013 N/A 0 0
4:54 am 04:54 undefined 75 23.9 63 17.2 66 66 undefined N/A 29.91 1013 N/A 0 0
5:54 am 05:54 undefined 75 23.9 63 17.2 66 66 undefined N/A 29.91 1013 N/A 0 0
6:54 am 06:54 Mostly Cloudy 77 25 64 17.8 64 64 undefined N/A 29.92 1013 N/A 0 0
7:54 am 07:54 Mostly Sunny 78 25.6 64 17.8 62 62 undefined N/A 29.92 1013 N/A 0 0
8:54 am 08:54 undefined 79 26.1 65 18.3 62 62 undefined N/A 29.91 1013 N/A 0 0
9:54 am 09:54 Mostly Sunny 80 26.7 65 18.3 60 60 undefined N/A 29.9 1012 N/A 0 0
10:54 am 10:54 undefined 82 27.8 64 17.8 55 55 undefined N/A 29.9 1013 N/A 0 0
11:54 am 11:54 undefined 82 27.8 63 17.2 53 53 undefined N/A 29.9 1013 N/A 0 0
12:54 pm 12:54 Cloudy 72 22.2 52 11.1 50 50 undefined N/A 30.07 1018 N/A 0 0
1:54 pm 13:54 Sunny 87 30.3 67 19.6 53 53 undefined N/A 30.01 1016 N/A 0 0
2:54 pm 14:54 Mostly Sunny 83 28.3 62 16.7 49 49 undefined N/A 29.85 1011 N/A 0 0
3:54 pm 15:54 undefined 82 27.8 64 17.8 55 55 undefined N/A 29.84 1011 N/A 0 0
4:54 pm 16:54 undefined 81 27.2 66 18.9 61 61 undefined N/A 29.83 1010 N/A 0 0
5:54 pm 17:54 Sunny 86 30.2 68 20.1 55 55 undefined N/A 29.55 1001 N/A 0 0
6:54 pm 18:54 Mostly Sunny 79 26.1 64 17.8 60 60 undefined N/A 29.8 1009 N/A 0 0
7:54 pm 19:54 Mostly Cloudy 75 23.9 70 20.9 83 83 undefined N/A 29.82 1010 N/A 0 0
8:54 pm 20:54 Mostly Clear 79 26.1 64 17.8 60 60 undefined N/A 29.8 1009 N/A 0 0
9:54 pm 21:54 undefined 79 26.1 66 18.9 65 65 undefined N/A 29.78 1008 N/A 0 0
10:54 pm 22:54 undefined 78 25.6 69 20.6 74 74 undefined N/A 29.76 1008 N/A 0 0
11:54 pm 23:54 Mostly Clear 76 24.2 73 22.7 91 91 undefined N/A 29.91 1013 N/A 0.02 0.508

Powered by AerisWeather